Time;durP1;ratioP1;P1;durP2;ratioP2;P2;SDS_P1;SDS_P2;PMS_P1;PMS_P2;Temp;Humidity;BMP_temperature;BMP_pressure;BME280_temperature;BME280_humidity;BME280_pressure;Samples;Min_cycle;Max_cycle;Signal;HPM_P1;HPM_P2
2022/12/01 00:00:35;;;;;;;26.00;11.90;;;;;;;;;;5033083;28;20065;-43
2022/12/01 00:03:00;;;;;;;26.02;11.68;;;;;;;;;;5033189;28;20034;-43
2022/12/01 00:05:25;;;;;;;23.80;11.07;;;;;;;;;;5033182;28;20017;-41
2022/12/01 00:07:50;;;;;;;25.88;10.88;;;;;;;;;;5032768;28;20037;-43
2022/12/01 00:10:24;;;;;;;22.73;10.82;;;;;;;;;;5032553;28;20107;-43
2022/12/01 00:12:50;;;;;;;27.65;11.23;;;;;;;;;;5032892;28;20025;-43
2022/12/01 00:15:16;;;;;;;26.23;11.70;;;;;;;;;;5032853;28;20025;-43
2022/12/01 00:17:44;;;;;;;25.52;12.25;;;;;;;;;;5032800;28;20120;-43
2022/12/01 00:20:09;;;;;;;25.13;11.52;;;;;;;;;;5013161;28;20602;-40
2022/12/01 00:22:35;;;;;;;24.27;10.95;;;;;;;;;;5031668;28;20112;-44
2022/12/01 00:25:00;;;;;;;25.55;10.73;;;;;;;;;;5032383;28;20021;-44
2022/12/01 00:27:25;;;;;;;26.63;12.40;;;;;;;;;;5032775;28;20033;-41
2022/12/01 00:29:50;;;;;;;27.33;12.38;;;;;;;;;;5032784;28;20121;-43
2022/12/01 00:32:16;;;;;;;29.52;12.55;;;;;;;;;;5032214;28;20511;-43
2022/12/01 00:34:41;;;;;;;28.33;11.70;;;;;;;;;;5032726;28;20044;-42
2022/12/01 00:37:06;;;;;;;31.95;12.85;;;;;;;;;;5032563;28;20022;-42
2022/12/01 00:39:32;;;;;;;26.27;11.30;;;;;;;;;;5032392;28;20070;-43
2022/12/01 00:41:57;;;;;;;24.75;12.25;;;;;;;;;;5032461;28;20370;-43
2022/12/01 00:44:22;;;;;;;24.42;11.60;;;;;;;;;;5032487;28;20103;-42
2022/12/01 00:46:48;;;;;;;27.35;12.07;;;;;;;;;;5032629;28;20080;-40
2022/12/01 00:49:13;;;;;;;29.92;12.10;;;;;;;;;;5032334;28;20463;-40
2022/12/01 00:51:39;;;;;;;35.47;11.15;;;;;;;;;;5032360;28;20026;-43
2022/12/01 00:54:04;;;;;;;29.67;12.00;;;;;;;;;;5032327;28;20052;-42
2022/12/01 00:56:29;;;;;;;25.13;11.70;;;;;;;;;;5032265;28;20068;-41
2022/12/01 00:58:55;;;;;;;29.63;12.45;;;;;;;;;;5032455;28;20014;-41
2022/12/01 01:01:20;;;;;;;23.42;10.25;;;;;;;;;;5032312;28;20362;-43
2022/12/01 01:03:45;;;;;;;28.08;11.73;;;;;;;;;;5032379;28;20076;-43
2022/12/01 01:06:11;;;;;;;32.45;12.93;;;;;;;;;;5032305;28;20029;-41
2022/12/01 01:08:36;;;;;;;24.60;11.45;;;;;;;;;;5032053;28;20075;-44
2022/12/01 01:11:02;;;;;;;22.55;10.32;;;;;;;;;;5032029;28;20393;-42
2022/12/01 01:13:28;;;;;;;24.63;11.70;;;;;;;;;;5032345;28;20049;-43
2022/12/01 01:16:01;;;;;;;26.52;11.57;;;;;;;;;;5032424;28;20028;-42
2022/12/01 01:18:27;;;;;;;26.48;11.27;;;;;;;;;;5032258;28;20112;-42
2022/12/01 01:20:56;;;;;;;25.80;11.32;;;;;;;;;;5031798;28;20080;-43
2022/12/01 01:23:21;;;;;;;26.70;11.25;;;;;;;;;;5032032;28;20120;-41
2022/12/01 01:25:47;;;;;;;23.10;10.40;;;;;;;;;;5032338;28;20524;-43
2022/12/01 01:28:12;;;;;;;26.95;11.98;;;;;;;;;;5012591;28;20034;-43
2022/12/01 01:30:40;;;;;;;25.33;12.25;;;;;;;;;;5031165;28;20376;-41
2022/12/01 01:33:06;;;;;;;29.33;11.37;;;;;;;;;;5032083;28;20032;-42
2022/12/01 01:35:31;;;;;;;24.13;10.82;;;;;;;;;;5032057;28;20100;-44
2022/12/01 01:37:56;;;;;;;28.77;11.55;;;;;;;;;;5031885;28;20013;-40
2022/12/01 01:40:21;;;;;;;26.27;10.93;;;;;;;;;;5032209;28;20029;-43
2022/12/01 01:42:47;;;;;;;27.48;12.10;;;;;;;;;;5032414;28;20028;-43
2022/12/01 01:45:32;;;;;;;24.77;10.90;;;;;;;;;;5035779;28;20044;-43
2022/12/01 01:47:58;;;;;;;36.40;13.77;;;;;;;;;;5035004;28;20091;-44
2022/12/01 01:50:24;;;;;;;28.90;12.43;;;;;;;;;;5035107;28;20457;-42
2022/12/01 01:52:53;;;;;;;31.52;12.50;;;;;;;;;;5034134;28;20368;-44
2022/12/01 01:55:19;;;;;;;32.90;14.38;;;;;;;;;;5034249;28;20033;-42
2022/12/01 01:57:44;;;;;;;35.90;14.43;;;;;;;;;;5035464;28;20021;-39
2022/12/01 02:00:11;;;;;;;37.13;15.32;;;;;;;;;;5035383;28;20026;-43
2022/12/01 02:02:39;;;;;;;31.85;12.60;;;;;;;;;;5034969;28;20112;-43
2022/12/01 02:05:09;;;;;;;27.70;11.50;;;;;;;;;;5034931;28;20104;-43
2022/12/01 02:07:35;;;;;;;29.30;12.25;;;;;;;;;;5035073;28;20124;-43
2022/12/01 02:10:01;;;;;;;28.67;11.77;;;;;;;;;;5034878;28;20128;-39
2022/12/01 02:12:38;;;;;;;24.30;10.82;;;;;;;;;;5035105;28;20029;-43
2022/12/01 02:15:16;;;;;;;27.95;11.20;;;;;;;;;;5035015;28;20065;-40
2022/12/01 02:17:44;;;;;;;25.75;12.02;;;;;;;;;;5034543;28;20086;-43
2022/12/01 02:20:10;;;;;;;26.90;11.15;;;;;;;;;;5035161;28;20025;-42
2022/12/01 02:22:51;;;;;;;26.80;11.65;;;;;;;;;;5034853;28;20531;-43
2022/12/01 02:25:28;;;;;;;25.52;10.82;;;;;;;;;;5034692;28;20055;-44
2022/12/01 02:27:57;;;;;;;30.02;12.40;;;;;;;;;;5034407;28;20068;-43
2022/12/01 02:30:37;;;;;;;26.87;11.40;;;;;;;;;;5034844;28;20107;-44
2022/12/01 02:33:02;;;;;;;30.10;13.10;;;;;;;;;;5034705;28;20028;-44
2022/12/01 02:35:28;;;;;;;27.33;11.65;;;;;;;;;;5034597;28;20100;-43
2022/12/01 02:38:22;;;;;;;27.38;12.45;;;;;;;;;;5034494;28;20123;-43
2022/12/01 02:41:07;;;;;;;28.90;11.98;;;;;;;;;;5033759;28;20041;-42
2022/12/01 02:43:32;;;;;;;28.90;11.25;;;;;;;;;;5034450;28;20056;-43
2022/12/01 02:46:10;;;;;;;28.88;12.25;;;;;;;;;;5034208;28;20108;-43
2022/12/01 02:48:37;;;;;;;30.27;12.32;;;;;;;;;;5034250;28;20041;-43
2022/12/01 02:51:08;;;;;;;24.20;11.77;;;;;;;;;;5034705;28;20097;-43
2022/12/01 02:53:34;;;;;;;24.02;11.05;;;;;;;;;;5033922;28;20129;-44
2022/12/01 02:55:59;;;;;;;31.48;12.52;;;;;;;;;;5034224;28;20497;-43
2022/12/01 02:58:24;;;;;;;31.77;11.52;;;;;;;;;;5034234;28;20075;-43
2022/12/01 03:01:09;;;;;;;29.02;12.23;;;;;;;;;;5034107;28;20022;-43
2022/12/01 03:03:46;;;;;;;30.13;11.98;;;;;;;;;;5034121;28;20025;-40
2022/12/01 03:06:12;;;;;;;26.17;11.45;;;;;;;;;;5034322;28;20021;-43
2022/12/01 03:08:51;;;;;;;28.92;12.85;;;;;;;;;;5033835;28;20426;-43
2022/12/01 03:11:25;;;;;;;31.10;12.30;;;;;;;;;;5032382;28;20547;-41
2022/12/01 03:13:51;;;;;;;28.05;12.75;;;;;;;;;;5033721;28;20021;-43
2022/12/01 03:16:24;;;;;;;31.00;12.95;;;;;;;;;;5033887;28;20091;-43
2022/12/01 03:18:53;;;;;;;33.08;13.20;;;;;;;;;;5033664;28;20051;-41
2022/12/01 03:21:22;;;;;;;29.15;12.05;;;;;;;;;;5033512;28;20022;-42
2022/12/01 03:23:50;;;;;;;34.40;13.05;;;;;;;;;;5033514;28;20022;-42
2022/12/01 03:26:17;;;;;;;30.42;12.43;;;;;;;;;;5033373;28;20022;-41
2022/12/01 03:28:45;;;;;;;29.95;12.98;;;;;;;;;;5033517;28;20124;-42
2022/12/01 03:31:14;;;;;;;26.40;10.90;;;;;;;;;;5033542;28;20017;-43
2022/12/01 03:33:44;;;;;;;29.83;12.30;;;;;;;;;;5032857;28;20057;-42
2022/12/01 03:36:14;;;;;;;25.52;11.05;;;;;;;;;;5033785;28;20018;-43
2022/12/01 03:38:41;;;;;;;35.28;13.68;;;;;;;;;;5033279;28;20354;-41
2022/12/01 03:41:15;;;;;;;26.55;11.63;;;;;;;;;;5033383;28;20036;-42
2022/12/01 03:43:43;;;;;;;25.98;10.90;;;;;;;;;;5033277;28;20032;-44
2022/12/01 03:46:45;;;;;;;29.30;11.70;;;;;;;;;;5033160;28;20518;-43
2022/12/01 03:49:10;;;;;;;32.30;11.35;;;;;;;;;;5030409;28;20419;-43
2022/12/01 03:51:36;;;;;;;28.88;12.52;;;;;;;;;;5032671;28;20026;-43
2022/12/01 03:54:04;;;;;;;28.52;12.48;;;;;;;;;;5031601;28;20120;-41
2022/12/01 03:56:32;;;;;;;32.80;13.20;;;;;;;;;;5032975;28;20064;-40
2022/12/01 03:58:59;;;;;;;28.48;12.13;;;;;;;;;;5032985;28;20492;-40
2022/12/01 04:01:30;;;;;;;29.77;12.00;;;;;;;;;;5032875;28;20071;-41
2022/12/01 04:03:59;;;;;;;27.17;12.55;;;;;;;;;;5032522;28;20078;-40
2022/12/01 04:06:24;;;;;;;27.08;11.50;;;;;;;;;;5032207;28;20025;-42
2022/12/01 04:08:49;;;;;;;24.02;10.73;;;;;;;;;;5032856;28;20033;-42
2022/12/01 04:13:58;;;;;;;27.45;11.45;;;;;;;;;;5032611;28;20056;-42
2022/12/01 04:16:23;;;;;;;25.05;11.32;;;;;;;;;;5032426;28;20022;-42
2022/12/01 04:18:49;;;;;;;31.02;11.85;;;;;;;;;;5032821;28;20465;-40
2022/12/01 04:21:14;;;;;;;28.80;12.07;;;;;;;;;;5032332;28;20021;-42
2022/12/01 04:26:23;;;;;;;26.17;11.23;;;;;;;;;;5032786;28;20051;-42
2022/12/01 04:28:48;;;;;;;27.95;10.88;;;;;;;;;;5032230;28;20520;-41
2022/12/01 04:31:14;;;;;;;26.77;11.57;;;;;;;;;;5032620;28;20021;-42
2022/12/01 04:33:39;;;;;;;31.88;11.30;;;;;;;;;;5032439;28;20025;-42
2022/12/01 04:36:05;;;;;;;25.45;11.55;;;;;;;;;;5032911;28;20021;-43
2022/12/01 04:38:30;;;;;;;24.15;10.82;;;;;;;;;;5032341;28;20102;-43
2022/12/01 04:40:55;;;;;;;27.13;10.65;;;;;;;;;;5032421;28;20457;-42
2022/12/01 04:43:20;;;;;;;26.60;11.70;;;;;;;;;;5032143;28;20358;-42
2022/12/01 04:45:46;;;;;;;25.73;11.65;;;;;;;;;;5032291;28;20025;-43
2022/12/01 04:48:11;;;;;;;28.35;11.80;;;;;;;;;;5032254;28;20091;-42
2022/12/01 04:50:36;;;;;;;24.15;10.60;;;;;;;;;;5032264;28;20127;-42
2022/12/01 04:53:02;;;;;;;25.02;10.55;;;;;;;;;;5032264;28;20022;-41
2022/12/01 04:55:28;;;;;;;27.85;11.63;;;;;;;;;;5032181;28;20024;-40
2022/12/01 04:57:53;;;;;;;26.55;10.77;;;;;;;;;;5032598;28;20025;-43
2022/12/01 05:00:18;;;;;;;26.90;11.40;;;;;;;;;;5032024;28;20041;-41
2022/12/01 05:02:44;;;;;;;27.20;11.52;;;;;;;;;;5032315;28;20029;-42
2022/12/01 05:05:10;;;;;;;25.67;10.15;;;;;;;;;;5032193;28;20068;-41
2022/12/01 05:07:36;;;;;;;27.40;12.00;;;;;;;;;;5032098;28;20401;-41
2022/12/01 05:10:01;;;;;;;26.45;10.73;;;;;;;;;;5031899;28;20133;-42
2022/12/01 05:12:26;;;;;;;26.48;10.95;;;;;;;;;;5031858;28;20029;-43
2022/12/01 05:14:51;;;;;;;29.05;11.80;;;;;;;;;;5032134;28;20033;-42
2022/12/01 05:17:17;;;;;;;25.95;10.68;;;;;;;;;;5033253;28;20028;-41
2022/12/01 05:22:26;;;;;;;31.67;11.30;;;;;;;;;;5035973;28;20082;-41
2022/12/01 05:24:52;;;;;;;28.52;11.48;;;;;;;;;;5035572;28;20017;-42
2022/12/01 05:27:17;;;;;;;28.52;12.18;;;;;;;;;;5036079;28;20096;-38
2022/12/01 05:29:42;;;;;;;31.48;13.38;;;;;;;;;;5035764;28;20022;-41
2022/12/01 05:32:08;;;;;;;29.45;12.77;;;;;;;;;;5035473;28;20017;-43
2022/12/01 05:34:33;;;;;;;26.55;11.48;;;;;;;;;;5034202;28;20025;-42
2022/12/01 05:36:58;;;;;;;28.25;11.82;;;;;;;;;;5035413;28;20018;-42
2022/12/01 05:39:23;;;;;;;33.75;12.90;;;;;;;;;;5035399;28;20021;-41
2022/12/01 05:41:49;;;;;;;37.25;13.55;;;;;;;;;;5035136;28;20124;-43
2022/12/01 05:44:14;;;;;;;26.45;11.93;;;;;;;;;;5035714;28;20029;-41
2022/12/01 05:46:39;;;;;;;32.35;13.27;;;;;;;;;;5035390;28;20029;-43
2022/12/01 05:49:05;;;;;;;28.73;11.95;;;;;;;;;;5035285;28;20064;-40
2022/12/01 05:51:30;;;;;;;27.92;11.98;;;;;;;;;;5035164;28;20126;-39
2022/12/01 05:53:57;;;;;;;29.17;11.75;;;;;;;;;;5035103;28;20403;-41
2022/12/01 05:56:23;;;;;;;28.85;12.25;;;;;;;;;;5034824;28;20034;-41
2022/12/01 05:58:48;;;;;;;31.60;11.98;;;;;;;;;;5035097;28;20117;-40
2022/12/01 06:01:13;;;;;;;26.55;11.40;;;;;;;;;;5035331;28;20457;-41
2022/12/01 06:03:39;;;;;;;27.67;11.88;;;;;;;;;;5034980;28;20100;-40
2022/12/01 06:06:04;;;;;;;29.67;12.45;;;;;;;;;;5035007;28;20422;-42
2022/12/01 06:08:29;;;;;;;32.60;12.35;;;;;;;;;;5033393;28;20033;-42
2022/12/01 06:10:55;;;;;;;31.17;13.02;;;;;;;;;;5034577;28;20045;-40
2022/12/01 06:13:20;;;;;;;28.40;12.20;;;;;;;;;;5034721;28;20040;-43
2022/12/01 06:15:54;;;;;;;30.80;12.73;;;;;;;;;;5034762;28;20036;-41
2022/12/01 06:18:19;;;;;;;29.27;12.45;;;;;;;;;;5034498;28;20465;-42
2022/12/01 06:20:44;;;;;;;28.63;12.55;;;;;;;;;;5034475;28;20021;-42
2022/12/01 06:23:10;;;;;;;30.60;13.07;;;;;;;;;;5034890;28;20096;-44
2022/12/01 06:25:35;;;;;;;32.17;13.82;;;;;;;;;;5034382;28;20071;-41
2022/12/01 06:28:01;;;;;;;29.83;13.27;;;;;;;;;;5033883;28;20033;-43
2022/12/01 06:30:26;;;;;;;37.97;13.55;;;;;;;;;;5032001;28;20049;-43
2022/12/01 06:32:51;;;;;;;30.60;14.10;;;;;;;;;;5014376;28;20812;-40
2022/12/01 06:35:17;;;;;;;35.35;13.65;;;;;;;;;;5032697;28;20042;-45
2022/12/01 06:37:42;;;;;;;34.90;13.90;;;;;;;;;;5029488;28;20026;-45
2022/12/01 06:40:08;;;;;;;27.90;13.00;;;;;;;;;;5020161;28;20113;-38
2022/12/01 06:42:33;;;;;;;33.10;14.13;;;;;;;;;;5021449;28;20026;-44
2022/12/01 06:44:59;;;;;;;37.95;14.35;;;;;;;;;;5033983;28;20018;-41
2022/12/01 06:47:24;;;;;;;35.28;15.73;;;;;;;;;;5033954;28;20021;-40
2022/12/01 06:49:49;;;;;;;32.53;14.40;;;;;;;;;;5034204;28;20072;-43
2022/12/01 06:52:14;;;;;;;37.72;15.18;;;;;;;;;;5026917;28;20025;-43
2022/12/01 06:54:40;;;;;;;35.22;15.07;;;;;;;;;;5022128;28;20017;-41
2022/12/01 06:57:05;;;;;;;37.45;15.27;;;;;;;;;;5024178;28;20018;-43
2022/12/01 06:59:31;;;;;;;34.20;14.65;;;;;;;;;;5028026;28;20030;-43
2022/12/01 07:01:56;;;;;;;43.40;17.80;;;;;;;;;;5028582;28;20418;-42
2022/12/01 07:04:22;;;;;;;39.92;16.20;;;;;;;;;;5028733;28;20029;-42
2022/12/01 07:06:47;;;;;;;35.72;16.67;;;;;;;;;;5028232;28;20049;-42
2022/12/01 07:09:12;;;;;;;38.10;16.52;;;;;;;;;;5027156;28;20430;-44
2022/12/01 07:11:38;;;;;;;36.38;15.10;;;;;;;;;;5028194;28;20052;-41
2022/12/01 07:14:03;;;;;;;35.92;16.45;;;;;;;;;;5028112;28;20032;-43
2022/12/01 07:16:28;;;;;;;35.38;15.20;;;;;;;;;;5029204;28;20021;-43
2022/12/01 07:18:54;;;;;;;36.28;17.08;;;;;;;;;;5026534;28;20052;-44
2022/12/01 07:21:20;;;;;;;37.80;16.27;;;;;;;;;;5030196;28;20083;-44
2022/12/01 07:23:45;;;;;;;38.67;15.25;;;;;;;;;;5043381;28;20033;-42
2022/12/01 07:26:11;;;;;;;38.67;16.80;;;;;;;;;;5027167;28;20060;-40
2022/12/01 07:28:37;;;;;;;35.63;15.73;;;;;;;;;;5036349;28;20478;-43
2022/12/01 07:31:03;;;;;;;35.40;16.85;;;;;;;;;;5027527;28;20033;-41
2022/12/01 07:33:29;;;;;;;40.80;17.33;;;;;;;;;;5017395;28;20021;-41
2022/12/01 07:35:54;;;;;;;34.20;15.68;;;;;;;;;;5030939;28;20079;-32
2022/12/01 07:38:19;;;;;;;34.80;16.48;;;;;;;;;;5027294;28;20053;-33
2022/12/01 07:40:45;;;;;;;34.72;15.90;;;;;;;;;;5018402;28;20088;-34
2022/12/01 07:43:11;;;;;;;35.35;16.80;;;;;;;;;;5027272;28;20026;-34
2022/12/01 07:45:39;;;;;;;36.92;15.80;;;;;;;;;;5030850;28;20032;-33
2022/12/01 07:48:04;;;;;;;32.78;15.55;;;;;;;;;;5029809;28;20559;-33
2022/12/01 07:50:30;;;;;;;33.28;15.10;;;;;;;;;;5029229;28;20050;-34
2022/12/01 07:52:55;;;;;;;36.20;15.20;;;;;;;;;;5027672;28;20022;-34
2022/12/01 07:55:20;;;;;;;27.15;13.23;;;;;;;;;;5025959;28;20025;-33
2022/12/01 07:57:46;;;;;;;28.80;14.02;;;;;;;;;;5029827;28;20035;-34
2022/12/01 08:00:11;;;;;;;28.55;13.80;;;;;;;;;;5028230;28;20108;-35
2022/12/01 08:02:37;;;;;;;29.00;14.13;;;;;;;;;;5026386;28;20116;-36
2022/12/01 08:05:02;;;;;;;30.85;15.93;;;;;;;;;;5028096;28;20079;-31
2022/12/01 08:07:27;;;;;;;24.90;13.45;;;;;;;;;;5023052;28;20036;-34
2022/12/01 08:09:54;;;;;;;22.73;12.23;;;;;;;;;;5030029;28;20057;-33
2022/12/01 08:12:19;;;;;;;21.73;11.68;;;;;;;;;;5029933;28;20036;-33
2022/12/01 08:14:45;;;;;;;24.30;12.90;;;;;;;;;;5023658;28;20120;-32
2022/12/01 08:17:10;;;;;;;28.38;13.45;;;;;;;;;;5024848;28;20029;-33
2022/12/01 08:19:35;;;;;;;24.20;12.18;;;;;;;;;;5024798;28;20021;-33
2022/12/01 08:22:00;;;;;;;25.20;12.10;;;;;;;;;;5024523;28;20120;-33
2022/12/01 08:24:26;;;;;;;23.75;11.45;;;;;;;;;;5029583;28;20021;-32
2022/12/01 08:26:51;;;;;;;25.85;12.75;;;;;;;;;;5027625;28;20024;-33
2022/12/01 08:29:17;;;;;;;27.40;12.88;;;;;;;;;;5023444;28;20731;-34
2022/12/01 08:31:42;;;;;;;22.25;11.65;;;;;;;;;;5030900;28;20132;-33
2022/12/01 08:34:07;;;;;;;25.88;11.85;;;;;;;;;;5028038;28;20022;-34
2022/12/01 08:36:33;;;;;;;23.58;12.68;;;;;;;;;;5029200;28;20048;-33
2022/12/01 08:38:59;;;;;;;23.40;11.27;;;;;;;;;;5030776;28;20021;-33
2022/12/01 08:41:24;;;;;;;24.35;11.60;;;;;;;;;;5025227;28;20032;-33
2022/12/01 08:43:49;;;;;;;24.08;12.50;;;;;;;;;;5030255;28;20112;-33
2022/12/01 08:46:15;;;;;;;24.98;13.23;;;;;;;;;;5029088;28;20444;-33
2022/12/01 08:48:40;;;;;;;22.88;12.45;;;;;;;;;;5029841;28;20124;-33
2022/12/01 08:51:07;;;;;;;23.23;11.90;;;;;;;;;;5028213;28;20029;-33
2022/12/01 08:53:33;;;;;;;24.42;13.02;;;;;;;;;;5029911;28;20068;-33
2022/12/01 08:56:00;;;;;;;22.25;11.73;;;;;;;;;;5033506;28;20021;-34
2022/12/01 08:58:25;;;;;;;22.05;12.32;;;;;;;;;;5026652;28;20025;-33
2022/12/01 09:00:51;;;;;;;23.92;12.23;;;;;;;;;;5023933;28;20034;-33
2022/12/01 09:03:16;;;;;;;24.77;12.50;;;;;;;;;;5028170;28;20029;-33
2022/12/01 09:05:41;;;;;;;21.98;12.30;;;;;;;;;;5029064;28;20033;-34
2022/12/01 09:10:51;;;;;;;22.23;12.50;;;;;;;;;;5029806;28;20444;-33
2022/12/01 09:13:16;;;;;;;24.02;12.60;;;;;;;;;;5033787;28;20025;-33
2022/12/01 09:15:41;;;;;;;23.65;12.05;;;;;;;;;;5035067;28;20040;-34
2022/12/01 09:18:07;;;;;;;24.52;12.05;;;;;;;;;;5026011;28;20122;-33
2022/12/01 09:20:32;;;;;;;23.70;12.23;;;;;;;;;;5027452;28;20029;-33
2022/12/01 09:22:57;;;;;;;22.17;11.73;;;;;;;;;;5030759;28;20053;-33
2022/12/01 09:25:24;;;;;;;22.40;11.77;;;;;;;;;;5033033;28;20025;-33
2022/12/01 09:27:49;;;;;;;22.48;11.73;;;;;;;;;;5024461;28;20076;-33
2022/12/01 09:30:15;;;;;;;22.80;12.15;;;;;;;;;;5030760;28;20030;-33
2022/12/01 09:32:40;;;;;;;25.48;12.70;;;;;;;;;;5031173;28;20018;-33
2022/12/01 09:35:06;;;;;;;21.63;11.48;;;;;;;;;;5024144;28;20433;-33
2022/12/01 09:37:31;;;;;;;20.27;11.63;;;;;;;;;;5032846;28;20032;-34
2022/12/01 09:39:56;;;;;;;20.58;11.00;;;;;;;;;;5034161;28;20025;-34
2022/12/01 09:42:26;;;;;;;26.60;12.10;;;;;;;;;;5029967;28;20151;-34
2022/12/01 09:44:52;;;;;;;21.80;12.27;;;;;;;;;;5029479;28;20032;-34
2022/12/01 09:47:32;;;;;;;22.70;11.82;;;;;;;;;;5026097;28;20057;-33
2022/12/01 09:50:09;;;;;;;20.77;10.93;;;;;;;;;;5026121;28;20041;-32
2022/12/01 09:52:52;;;;;;;23.23;11.30;;;;;;;;;;5026378;28;20029;-34
2022/12/01 09:55:18;;;;;;;22.40;11.07;;;;;;;;;;5027511;28;20461;-33
2022/12/01 09:57:46;;;;;;;17.42;10.23;;;;;;;;;;5027089;28;20025;-33
2022/12/01 10:00:13;;;;;;;19.08;11.38;;;;;;;;;;5031664;28;20507;-33
2022/12/01 10:02:41;;;;;;;19.20;11.18;;;;;;;;;;5032218;28;20060;-33
2022/12/01 10:05:12;;;;;;;20.27;11.60;;;;;;;;;;5016873;28;20026;-33
2022/12/01 10:07:41;;;;;;;21.90;11.23;;;;;;;;;;5032509;28;20104;-33
2022/12/01 10:10:15;;;;;;;17.92;11.38;;;;;;;;;;5031606;28;20095;-33
2022/12/01 10:12:42;;;;;;;19.65;11.25;;;;;;;;;;5028916;28;20032;-33
2022/12/01 10:15:26;;;;;;;22.08;11.82;;;;;;;;;;5030121;28;20063;-33
2022/12/01 10:18:01;;;;;;;21.65;11.18;;;;;;;;;;5021172;28;20538;-33
2022/12/01 10:20:32;;;;;;;16.52;9.73;;;;;;;;;;5031718;28;20481;-34
2022/12/01 10:23:13;;;;;;;19.05;11.38;;;;;;;;;;5030326;28;20018;-34
2022/12/01 10:25:38;;;;;;;21.92;11.95;;;;;;;;;;5011842;28;20117;-34
2022/12/01 10:28:22;;;;;;;21.98;12.05;;;;;;;;;;5021400;28;20120;-33
2022/12/01 10:30:51;;;;;;;20.15;11.43;;;;;;;;;;5034073;28;20034;-34
2022/12/01 10:33:16;;;;;;;19.73;11.50;;;;;;;;;;5033941;28;20021;-34
2022/12/01 10:35:42;;;;;;;22.63;12.43;;;;;;;;;;5033705;28;20491;-34
2022/12/01 10:38:13;;;;;;;27.23;13.73;;;;;;;;;;5033186;28;20101;-34
2022/12/01 10:40:40;;;;;;;18.48;11.55;;;;;;;;;;5021402;28;20073;-34
2022/12/01 10:43:08;;;;;;;20.35;12.65;;;;;;;;;;5025805;28;20504;-33
2022/12/01 10:45:35;;;;;;;22.13;11.70;;;;;;;;;;5033522;28;20032;-34
2022/12/01 10:48:10;;;;;;;19.88;11.93;;;;;;;;;;5032776;28;20026;-33
2022/12/01 10:50:35;;;;;;;20.25;12.25;;;;;;;;;;5030463;28;20112;-33
2022/12/01 10:53:01;;;;;;;21.77;12.73;;;;;;;;;;5033661;28;20531;-33
2022/12/01 10:55:28;;;;;;;21.75;12.25;;;;;;;;;;5024801;28;20426;-34
2022/12/01 10:57:55;;;;;;;21.73;13.60;;;;;;;;;;5026847;28;20030;-33
2022/12/01 11:00:21;;;;;;;21.23;12.27;;;;;;;;;;5031985;28;20018;-34
2022/12/01 11:02:46;;;;;;;20.27;12.32;;;;;;;;;;5019601;28;20037;-37
2022/12/01 11:05:38;;;;;;;21.55;12.60;;;;;;;;;;5028017;28;20037;-33
2022/12/01 11:08:03;;;;;;;26.50;12.80;;;;;;;;;;5023372;28;20041;-33
2022/12/01 11:10:30;;;;;;;24.10;12.80;;;;;;;;;;5032895;28;20507;-33
2022/12/01 11:13:03;;;;;;;22.63;12.18;;;;;;;;;;5029750;28;20384;-33
2022/12/01 11:15:36;;;;;;;24.55;12.18;;;;;;;;;;5032599;28;20329;-33
2022/12/01 11:18:04;;;;;;;22.38;11.70;;;;;;;;;;5032317;28;20044;-32
2022/12/01 11:20:36;;;;;;;23.33;12.45;;;;;;;;;;5037988;28;20021;-33
2022/12/01 11:23:17;;;;;;;22.35;13.07;;;;;;;;;;5036971;28;20369;-33
2022/12/01 11:25:55;;;;;;;24.42;12.40;;;;;;;;;;5028228;28;20099;-34
2022/12/01 11:28:20;;;;;;;25.52;12.18;;;;;;;;;;5032200;28;20552;-32
2022/12/01 11:30:45;;;;;;;20.30;11.82;;;;;;;;;;5032683;28;20108;-33
2022/12/01 11:33:13;;;;;;;21.05;11.90;;;;;;;;;;5032130;28;20033;-42
2022/12/01 11:35:45;;;;;;;21.95;12.70;;;;;;;;;;5032465;28;20025;-45
2022/12/01 11:38:18;;;;;;;21.33;11.38;;;;;;;;;;5031370;28;20079;-39
2022/12/01 11:40:45;;;;;;;23.65;12.38;;;;;;;;;;5033166;28;20078;-42
2022/12/01 11:43:18;;;;;;;18.90;11.70;;;;;;;;;;5031551;28;20029;-41
2022/12/01 11:45:44;;;;;;;23.67;12.95;;;;;;;;;;5025634;28;20021;-40
2022/12/01 11:48:09;;;;;;;20.02;12.25;;;;;;;;;;5024301;28;20041;-40
2022/12/01 11:50:36;;;;;;;21.90;12.43;;;;;;;;;;5032442;28;20053;-40
2022/12/01 11:53:01;;;;;;;20.83;11.43;;;;;;;;;;5031605;28;20737;-41
2022/12/01 11:55:28;;;;;;;19.65;11.02;;;;;;;;;;5031737;28;20030;-41
2022/12/01 11:57:56;;;;;;;22.35;12.20;;;;;;;;;;5031835;28;20028;-42
2022/12/01 12:00:23;;;;;;;22.20;11.85;;;;;;;;;;5032163;28;20028;-41
2022/12/01 12:03:07;;;;;;;23.00;12.40;;;;;;;;;;5029873;28;20025;-39
2022/12/01 12:05:38;;;;;;;22.65;12.30;;;;;;;;;;5029034;28;20018;-37
2022/12/01 12:08:06;;;;;;;22.52;11.95;;;;;;;;;;5030084;28;20047;-40
2022/12/01 12:10:43;;;;;;;19.38;10.65;;;;;;;;;;5030356;28;20049;-39
2022/12/01 12:13:16;;;;;;;24.17;12.38;;;;;;;;;;5028442;28;20638;-42
2022/12/01 12:16:00;;;;;;;20.45;12.02;;;;;;;;;;5027600;28;20382;-40
2022/12/01 12:18:25;;;;;;;27.23;13.30;;;;;;;;;;5019717;28;20097;-38
2022/12/01 12:20:54;;;;;;;21.27;11.60;;;;;;;;;;5019563;28;20151;-43
2022/12/01 12:23:38;;;;;;;22.57;12.30;;;;;;;;;;5017497;28;20286;-36
2022/12/01 12:26:09;;;;;;;19.75;11.30;;;;;;;;;;5013537;28;20120;-39
2022/12/01 12:28:35;;;;;;;27.67;11.73;;;;;;;;;;5030548;28;20037;-38
2022/12/01 12:31:03;;;;;;;23.38;12.00;;;;;;;;;;5019189;28;20025;-39
2022/12/01 12:33:39;;;;;;;19.92;11.73;;;;;;;;;;5019671;28;20232;-42
2022/12/01 12:36:22;;;;;;;22.13;12.60;;;;;;;;;;5030060;28;20039;-43
2022/12/01 12:38:55;;;;;;;21.55;11.48;;;;;;;;;;5026872;28;20072;-42
2022/12/01 12:41:21;;;;;;;21.80;11.73;;;;;;;;;;5023006;28;20048;-46
2022/12/01 12:43:49;;;;;;;25.30;12.87;;;;;;;;;;5025564;28;20449;-43
2022/12/01 12:46:43;;;;;;;25.13;13.68;;;;;;;;;;5028124;28;20278;-45
2022/12/01 12:49:15;;;;;;;27.50;13.23;;;;;;;;;;5016092;28;20080;-45
2022/12/01 12:51:43;;;;;;;19.70;11.85;;;;;;;;;;5027434;28;20108;-42
2022/12/01 12:54:16;;;;;;;30.67;13.85;;;;;;;;;;5019741;28;20080;-42
2022/12/01 12:56:44;;;;;;;24.77;13.50;;;;;;;;;;5027738;28;20048;-43
2022/12/01 12:59:11;;;;;;;22.58;12.82;;;;;;;;;;5024013;28;20021;-46
2022/12/01 13:01:41;;;;;;;24.40;12.70;;;;;;;;;;5024568;28;20460;-44
2022/12/01 13:04:17;;;;;;;25.77;13.10;;;;;;;;;;5019665;28;20071;-46
2022/12/01 13:06:45;;;;;;;24.92;13.13;;;;;;;;;;5024521;28;20637;-45
2022/12/01 13:09:16;;;;;;;21.77;11.15;;;;;;;;;;5025349;28;20073;-45
2022/12/01 13:12:00;;;;;;;24.00;13.35;;;;;;;;;;5029153;28;20284;-44
2022/12/01 13:14:31;;;;;;;24.30;12.38;;;;;;;;;;5027007;28;20074;-41
2022/12/01 13:17:01;;;;;;;20.95;11.50;;;;;;;;;;5022076;28;20033;-44
2022/12/01 13:19:32;;;;;;;22.13;11.95;;;;;;;;;;5027315;28;20029;-41
2022/12/01 13:21:58;;;;;;;18.15;11.15;;;;;;;;;;5024922;28;20447;-44
2022/12/01 13:24:26;;;;;;;25.00;12.00;;;;;;;;;;5027578;28;20018;-42
2022/12/01 13:27:04;;;;;;;22.63;12.27;;;;;;;;;;5023801;28;20025;-45
2022/12/01 13:29:32;;;;;;;24.30;12.00;;;;;;;;;;5023434;28;20033;-44
2022/12/01 13:31:58;;;;;;;23.38;12.02;;;;;;;;;;5027135;28;20029;-45
2022/12/01 13:34:26;;;;;;;24.10;13.15;;;;;;;;;;5017216;28;20053;-43
2022/12/01 13:36:53;;;;;;;24.98;11.88;;;;;;;;;;5018865;28;20021;-42
2022/12/01 13:39:26;;;;;;;21.73;12.32;;;;;;;;;;5025785;28;20086;-44
2022/12/01 13:42:04;;;;;;;26.98;14.00;;;;;;;;;;5024093;28;20037;-42
2022/12/01 13:44:50;;;;;;;26.42;13.43;;;;;;;;;;5034797;28;20021;-46
2022/12/01 13:47:16;;;;;;;25.38;13.23;;;;;;;;;;5022960;28;20578;-45
2022/12/01 13:49:48;;;;;;;28.80;14.48;;;;;;;;;;5030579;28;20064;-43
2022/12/01 13:52:20;;;;;;;24.42;12.90;;;;;;;;;;5032384;28;20443;-44
2022/12/01 13:55:00;;;;;;;29.27;13.68;;;;;;;;;;5032070;28;20037;-40
2022/12/01 13:57:27;;;;;;;27.00;14.75;;;;;;;;;;5025621;28;20029;-42
2022/12/01 13:59:58;;;;;;;30.85;15.88;;;;;;;;;;5029635;28;20041;-41
2022/12/01 14:02:25;;;;;;;29.50;14.80;;;;;;;;;;5033934;28;20096;-41
2022/12/01 14:04:50;;;;;;;33.85;16.95;;;;;;;;;;5023281;28;20072;-43
2022/12/01 14:07:21;;;;;;;28.23;14.52;;;;;;;;;;5026963;28;20037;-42
2022/12/01 14:09:47;;;;;;;30.77;15.63;;;;;;;;;;5027083;28;20069;-42
2022/12/01 14:12:18;;;;;;;28.50;15.50;;;;;;;;;;5025637;28;20084;-42
2022/12/01 14:14:47;;;;;;;30.30;13.90;;;;;;;;;;5026897;28;20033;-42
2022/12/01 14:17:32;;;;;;;29.40;15.05;;;;;;;;;;5030294;28;20033;-44
2022/12/01 14:20:07;;;;;;;30.35;14.32;;;;;;;;;;5024588;28;20124;-43
2022/12/01 14:22:45;;;;;;;27.42;13.93;;;;;;;;;;5029829;28;20651;-43
2022/12/01 14:25:23;;;;;;;29.98;14.73;;;;;;;;;;5028112;28;20033;-41
2022/12/01 14:27:50;;;;;;;27.83;14.45;;;;;;;;;;5025324;28;20395;-43
2022/12/01 14:30:34;;;;;;;25.75;14.15;;;;;;;;;;5023313;28;20026;-43
2022/12/01 14:33:18;;;;;;;30.75;15.38;;;;;;;;;;5027919;28;20128;-43